sensor_id;sensor_type;location;lat;lon;timestamp;P1;durP1;ratioP1;P2;durP2;ratioP2
68106;SDS011;54892;47.488;19.026;2022-12-29T00:02:38;17.23;;;7.18;;
68106;SDS011;54892;47.488;19.026;2022-12-29T00:05:42;19.27;;;6.90;;
68106;SDS011;54892;47.488;19.026;2022-12-29T00:08:47;13.13;;;6.87;;
68106;SDS011;54892;47.488;19.026;2022-12-29T00:11:51;23.27;;;7.55;;
68106;SDS011;54892;47.488;19.026;2022-12-29T00:14:54;16.05;;;6.93;;
68106;SDS011;54892;47.488;19.026;2022-12-29T00:18:15;13.02;;;6.85;;
68106;SDS011;54892;47.488;19.026;2022-12-29T00:21:20;17.58;;;7.30;;
68106;SDS011;54892;47.488;19.026;2022-12-29T00:24:43;17.37;;;7.30;;
68106;SDS011;54892;47.488;19.026;2022-12-29T00:28:04;17.52;;;7.07;;
68106;SDS011;54892;47.488;19.026;2022-12-29T00:31:27;16.83;;;6.97;;
68106;SDS011;54892;47.488;19.026;2022-12-29T00:34:49;15.45;;;7.07;;
68106;SDS011;54892;47.488;19.026;2022-12-29T00:38:11;15.85;;;7.00;;
68106;SDS011;54892;47.488;19.026;2022-12-29T00:41:35;16.27;;;7.30;;
68106;SDS011;54892;47.488;19.026;2022-12-29T00:44:55;14.48;;;6.75;;
68106;SDS011;54892;47.488;19.026;2022-12-29T00:47:59;16.25;;;7.40;;
68106;SDS011;54892;47.488;19.026;2022-12-29T00:51:03;14.13;;;6.87;;
68106;SDS011;54892;47.488;19.026;2022-12-29T00:54:06;13.65;;;7.30;;
68106;SDS011;54892;47.488;19.026;2022-12-29T00:57:11;15.25;;;6.85;;
68106;SDS011;54892;47.488;19.026;2022-12-29T01:00:15;15.30;;;7.05;;
68106;SDS011;54892;47.488;19.026;2022-12-29T01:03:19;13.62;;;6.43;;
68106;SDS011;54892;47.488;19.026;2022-12-29T01:06:23;13.80;;;7.20;;
68106;SDS011;54892;47.488;19.026;2022-12-29T01:09:27;17.45;;;7.03;;
68106;SDS011;54892;47.488;19.026;2022-12-29T01:12:52;12.07;;;6.70;;
68106;SDS011;54892;47.488;19.026;2022-12-29T01:15:56;14.32;;;7.00;;
68106;SDS011;54892;47.488;19.026;2022-12-29T01:19:00;12.82;;;6.43;;
68106;SDS011;54892;47.488;19.026;2022-12-29T01:22:05;15.55;;;6.72;;
68106;SDS011;54892;47.488;19.026;2022-12-29T01:25:08;11.90;;;6.47;;
68106;SDS011;54892;47.488;19.026;2022-12-29T01:28:13;12.68;;;6.62;;
68106;SDS011;54892;47.488;19.026;2022-12-29T01:31:18;16.52;;;7.15;;
68106;SDS011;54892;47.488;19.026;2022-12-29T01:34:22;12.35;;;6.45;;
68106;SDS011;54892;47.488;19.026;2022-12-29T01:37:26;16.00;;;7.05;;
68106;SDS011;54892;47.488;19.026;2022-12-29T01:40:29;15.07;;;5.85;;
68106;SDS011;54892;47.488;19.026;2022-12-29T01:43:41;10.10;;;5.65;;
68106;SDS011;54892;47.488;19.026;2022-12-29T01:46:45;15.38;;;6.40;;
68106;SDS011;54892;47.488;19.026;2022-12-29T01:49:52;14.82;;;6.32;;
68106;SDS011;54892;47.488;19.026;2022-12-29T01:52:59;12.23;;;6.12;;
68106;SDS011;54892;47.488;19.026;2022-12-29T01:56:05;12.70;;;5.70;;
68106;SDS011;54892;47.488;19.026;2022-12-29T01:59:18;14.32;;;6.40;;
68106;SDS011;54892;47.488;19.026;2022-12-29T02:02:25;15.57;;;6.40;;
68106;SDS011;54892;47.488;19.026;2022-12-29T02:05:33;15.02;;;6.45;;
68106;SDS011;54892;47.488;19.026;2022-12-29T02:08:41;11.75;;;5.90;;
68106;SDS011;54892;47.488;19.026;2022-12-29T02:11:49;10.57;;;6.00;;
68106;SDS011;54892;47.488;19.026;2022-12-29T02:14:55;12.55;;;6.18;;
68106;SDS011;54892;47.488;19.026;2022-12-29T02:18:09;9.68;;;5.75;;
68106;SDS011;54892;47.488;19.026;2022-12-29T02:21:31;11.82;;;6.10;;
68106;SDS011;54892;47.488;19.026;2022-12-29T02:28:28;15.45;;;5.82;;
68106;SDS011;54892;47.488;19.026;2022-12-29T02:31:51;21.60;;;6.50;;
68106;SDS011;54892;47.488;19.026;2022-12-29T02:35:04;12.20;;;5.80;;
68106;SDS011;54892;47.488;19.026;2022-12-29T02:38:18;13.15;;;6.30;;
68106;SDS011;54892;47.488;19.026;2022-12-29T02:41:29;14.07;;;5.85;;
68106;SDS011;54892;47.488;19.026;2022-12-29T02:44:36;15.73;;;6.82;;
68106;SDS011;54892;47.488;19.026;2022-12-29T02:47:53;15.23;;;6.40;;
68106;SDS011;54892;47.488;19.026;2022-12-29T02:51:04;14.02;;;5.82;;
68106;SDS011;54892;47.488;19.026;2022-12-29T02:54:12;11.95;;;5.85;;
68106;SDS011;54892;47.488;19.026;2022-12-29T02:57:34;14.75;;;6.03;;
68106;SDS011;54892;47.488;19.026;2022-12-29T03:00:39;11.75;;;5.40;;
68106;SDS011;54892;47.488;19.026;2022-12-29T03:03:57;12.57;;;5.82;;
68106;SDS011;54892;47.488;19.026;2022-12-29T03:07:20;12.70;;;5.68;;
68106;SDS011;54892;47.488;19.026;2022-12-29T03:10:30;10.80;;;5.50;;
68106;SDS011;54892;47.488;19.026;2022-12-29T03:13:42;11.85;;;5.72;;
68106;SDS011;54892;47.488;19.026;2022-12-29T03:17:07;17.62;;;5.85;;
68106;SDS011;54892;47.488;19.026;2022-12-29T03:20:16;10.98;;;5.57;;
68106;SDS011;54892;47.488;19.026;2022-12-29T03:23:23;14.30;;;5.15;;
68106;SDS011;54892;47.488;19.026;2022-12-29T03:26:30;16.73;;;6.25;;
68106;SDS011;54892;47.488;19.026;2022-12-29T03:29:35;13.80;;;6.65;;
68106;SDS011;54892;47.488;19.026;2022-12-29T03:32:42;13.98;;;6.10;;
68106;SDS011;54892;47.488;19.026;2022-12-29T03:35:51;14.10;;;5.97;;
68106;SDS011;54892;47.488;19.026;2022-12-29T03:39:01;14.68;;;5.78;;
68106;SDS011;54892;47.488;19.026;2022-12-29T03:42:09;14.60;;;6.03;;
68106;SDS011;54892;47.488;19.026;2022-12-29T03:45:16;11.25;;;5.90;;
68106;SDS011;54892;47.488;19.026;2022-12-29T03:48:20;11.07;;;6.25;;
68106;SDS011;54892;47.488;19.026;2022-12-29T03:51:25;13.57;;;5.87;;
68106;SDS011;54892;47.488;19.026;2022-12-29T03:54:28;15.93;;;6.57;;
68106;SDS011;54892;47.488;19.026;2022-12-29T03:57:32;16.30;;;7.07;;
68106;SDS011;54892;47.488;19.026;2022-12-29T04:00:36;16.25;;;6.20;;
68106;SDS011;54892;47.488;19.026;2022-12-29T04:03:40;10.38;;;5.95;;
68106;SDS011;54892;47.488;19.026;2022-12-29T04:06:45;14.32;;;5.90;;
68106;SDS011;54892;47.488;19.026;2022-12-29T04:09:49;14.40;;;6.07;;
68106;SDS011;54892;47.488;19.026;2022-12-29T04:12:54;9.83;;;5.77;;
68106;SDS011;54892;47.488;19.026;2022-12-29T04:15:58;14.85;;;6.55;;
68106;SDS011;54892;47.488;19.026;2022-12-29T04:19:01;13.27;;;6.03;;
68106;SDS011;54892;47.488;19.026;2022-12-29T04:22:06;12.68;;;6.43;;
68106;SDS011;54892;47.488;19.026;2022-12-29T04:25:10;11.40;;;6.00;;
68106;SDS011;54892;47.488;19.026;2022-12-29T04:28:14;13.70;;;6.15;;
68106;SDS011;54892;47.488;19.026;2022-12-29T04:31:18;13.00;;;6.50;;
68106;SDS011;54892;47.488;19.026;2022-12-29T04:34:22;15.05;;;6.25;;
68106;SDS011;54892;47.488;19.026;2022-12-29T04:37:27;13.80;;;6.37;;
68106;SDS011;54892;47.488;19.026;2022-12-29T04:40:31;15.88;;;7.00;;
68106;SDS011;54892;47.488;19.026;2022-12-29T04:43:35;12.25;;;6.72;;
68106;SDS011;54892;47.488;19.026;2022-12-29T04:46:38;12.37;;;6.30;;
68106;SDS011;54892;47.488;19.026;2022-12-29T04:49:42;15.85;;;6.37;;
68106;SDS011;54892;47.488;19.026;2022-12-29T04:52:47;11.32;;;6.70;;
68106;SDS011;54892;47.488;19.026;2022-12-29T04:55:51;13.23;;;6.78;;
68106;SDS011;54892;47.488;19.026;2022-12-29T04:58:55;13.50;;;6.70;;
68106;SDS011;54892;47.488;19.026;2022-12-29T05:01:59;16.52;;;6.87;;
68106;SDS011;54892;47.488;19.026;2022-12-29T05:05:03;16.85;;;6.68;;
68106;SDS011;54892;47.488;19.026;2022-12-29T05:08:09;14.68;;;6.53;;
68106;SDS011;54892;47.488;19.026;2022-12-29T05:11:12;17.50;;;7.57;;
68106;SDS011;54892;47.488;19.026;2022-12-29T05:14:16;17.00;;;7.15;;
68106;SDS011;54892;47.488;19.026;2022-12-29T05:17:20;14.70;;;6.85;;
68106;SDS011;54892;47.488;19.026;2022-12-29T05:20:24;12.82;;;7.57;;
68106;SDS011;54892;47.488;19.026;2022-12-29T05:23:29;11.43;;;7.18;;
68106;SDS011;54892;47.488;19.026;2022-12-29T05:26:32;16.50;;;7.47;;
68106;SDS011;54892;47.488;19.026;2022-12-29T05:29:36;19.70;;;7.22;;
68106;SDS011;54892;47.488;19.026;2022-12-29T05:32:39;14.30;;;7.78;;
68106;SDS011;54892;47.488;19.026;2022-12-29T05:35:43;12.98;;;7.75;;
68106;SDS011;54892;47.488;19.026;2022-12-29T05:38:47;14.90;;;7.43;;
68106;SDS011;54892;47.488;19.026;2022-12-29T05:41:51;14.77;;;8.02;;
68106;SDS011;54892;47.488;19.026;2022-12-29T05:44:54;16.37;;;7.82;;
68106;SDS011;54892;47.488;19.026;2022-12-29T05:47:58;17.30;;;7.90;;
68106;SDS011;54892;47.488;19.026;2022-12-29T05:51:01;17.62;;;8.60;;
68106;SDS011;54892;47.488;19.026;2022-12-29T05:54:06;16.48;;;8.15;;
68106;SDS011;54892;47.488;19.026;2022-12-29T05:57:09;16.23;;;8.53;;
68106;SDS011;54892;47.488;19.026;2022-12-29T06:00:14;15.50;;;8.77;;
68106;SDS011;54892;47.488;19.026;2022-12-29T06:03:18;16.23;;;8.30;;
68106;SDS011;54892;47.488;19.026;2022-12-29T06:06:22;15.60;;;8.60;;
68106;SDS011;54892;47.488;19.026;2022-12-29T06:09:26;20.23;;;9.35;;
68106;SDS011;54892;47.488;19.026;2022-12-29T06:12:30;19.65;;;8.40;;
68106;SDS011;54892;47.488;19.026;2022-12-29T06:15:33;18.05;;;8.50;;
68106;SDS011;54892;47.488;19.026;2022-12-29T06:18:37;21.15;;;9.43;;
68106;SDS011;54892;47.488;19.026;2022-12-29T06:21:41;17.23;;;8.27;;
68106;SDS011;54892;47.488;19.026;2022-12-29T06:24:46;15.55;;;8.40;;
68106;SDS011;54892;47.488;19.026;2022-12-29T06:27:50;17.08;;;8.45;;
68106;SDS011;54892;47.488;19.026;2022-12-29T06:30:53;22.77;;;8.90;;
68106;SDS011;54892;47.488;19.026;2022-12-29T06:33:57;15.85;;;8.40;;
68106;SDS011;54892;47.488;19.026;2022-12-29T06:37:02;18.62;;;8.75;;
68106;SDS011;54892;47.488;19.026;2022-12-29T06:40:08;17.17;;;8.10;;
68106;SDS011;54892;47.488;19.026;2022-12-29T06:43:13;14.00;;;8.13;;
68106;SDS011;54892;47.488;19.026;2022-12-29T06:46:17;16.75;;;8.63;;
68106;SDS011;54892;47.488;19.026;2022-12-29T06:49:21;14.63;;;8.20;;
68106;SDS011;54892;47.488;19.026;2022-12-29T06:52:25;16.95;;;8.60;;
68106;SDS011;54892;47.488;19.026;2022-12-29T06:55:31;15.75;;;8.35;;
68106;SDS011;54892;47.488;19.026;2022-12-29T06:58:35;18.77;;;9.30;;
68106;SDS011;54892;47.488;19.026;2022-12-29T07:01:39;20.70;;;9.80;;
68106;SDS011;54892;47.488;19.026;2022-12-29T07:04:42;18.98;;;9.02;;
68106;SDS011;54892;47.488;19.026;2022-12-29T07:07:46;16.77;;;8.55;;
68106;SDS011;54892;47.488;19.026;2022-12-29T07:10:52;16.45;;;9.05;;
68106;SDS011;54892;47.488;19.026;2022-12-29T07:13:55;17.85;;;9.15;;
68106;SDS011;54892;47.488;19.026;2022-12-29T07:16:59;20.45;;;10.10;;
68106;SDS011;54892;47.488;19.026;2022-12-29T07:20:03;19.40;;;9.57;;
68106;SDS011;54892;47.488;19.026;2022-12-29T07:23:08;18.73;;;9.88;;
68106;SDS011;54892;47.488;19.026;2022-12-29T07:26:14;20.15;;;9.95;;
68106;SDS011;54892;47.488;19.026;2022-12-29T07:29:19;21.75;;;9.15;;
68106;SDS011;54892;47.488;19.026;2022-12-29T07:32:23;21.60;;;9.55;;
68106;SDS011;54892;47.488;19.026;2022-12-29T07:35:27;20.15;;;9.85;;
68106;SDS011;54892;47.488;19.026;2022-12-29T07:38:31;18.37;;;9.70;;
68106;SDS011;54892;47.488;19.026;2022-12-29T07:41:36;21.75;;;9.43;;
68106;SDS011;54892;47.488;19.026;2022-12-29T07:44:39;20.02;;;10.18;;
68106;SDS011;54892;47.488;19.026;2022-12-29T07:47:43;18.08;;;9.90;;
68106;SDS011;54892;47.488;19.026;2022-12-29T07:50:49;23.77;;;10.20;;
68106;SDS011;54892;47.488;19.026;2022-12-29T07:53:54;18.05;;;9.98;;
68106;SDS011;54892;47.488;19.026;2022-12-29T07:57:02;26.58;;;10.88;;
68106;SDS011;54892;47.488;19.026;2022-12-29T08:00:06;25.17;;;11.27;;
68106;SDS011;54892;47.488;19.026;2022-12-29T08:03:12;22.70;;;10.02;;
68106;SDS011;54892;47.488;19.026;2022-12-29T08:06:15;22.92;;;10.32;;
68106;SDS011;54892;47.488;19.026;2022-12-29T08:09:19;23.62;;;10.05;;
68106;SDS011;54892;47.488;19.026;2022-12-29T08:12:25;21.50;;;10.43;;
68106;SDS011;54892;47.488;19.026;2022-12-29T08:15:29;23.00;;;10.90;;
68106;SDS011;54892;47.488;19.026;2022-12-29T08:18:33;20.83;;;10.55;;
68106;SDS011;54892;47.488;19.026;2022-12-29T08:21:36;23.70;;;10.95;;
68106;SDS011;54892;47.488;19.026;2022-12-29T08:24:40;25.92;;;11.05;;
68106;SDS011;54892;47.488;19.026;2022-12-29T08:27:45;22.35;;;10.82;;
68106;SDS011;54892;47.488;19.026;2022-12-29T08:30:49;25.02;;;10.48;;
68106;SDS011;54892;47.488;19.026;2022-12-29T08:33:53;19.62;;;10.38;;
68106;SDS011;54892;47.488;19.026;2022-12-29T08:36:57;20.62;;;10.70;;
68106;SDS011;54892;47.488;19.026;2022-12-29T08:40:01;19.17;;;10.35;;
68106;SDS011;54892;47.488;19.026;2022-12-29T08:43:06;20.65;;;10.77;;
68106;SDS011;54892;47.488;19.026;2022-12-29T08:46:11;25.77;;;11.93;;
68106;SDS011;54892;47.488;19.026;2022-12-29T08:49:14;22.48;;;11.48;;
68106;SDS011;54892;47.488;19.026;2022-12-29T08:52:18;23.05;;;10.88;;
68106;SDS011;54892;47.488;19.026;2022-12-29T08:55:22;26.40;;;11.68;;
68106;SDS011;54892;47.488;19.026;2022-12-29T08:58:27;19.92;;;10.88;;
68106;SDS011;54892;47.488;19.026;2022-12-29T09:01:31;30.77;;;11.35;;
68106;SDS011;54892;47.488;19.026;2022-12-29T09:04:35;27.33;;;11.82;;
68106;SDS011;54892;47.488;19.026;2022-12-29T09:07:39;27.30;;;11.73;;
68106;SDS011;54892;47.488;19.026;2022-12-29T09:10:42;22.75;;;12.07;;
68106;SDS011;54892;47.488;19.026;2022-12-29T09:13:48;27.92;;;12.15;;
68106;SDS011;54892;47.488;19.026;2022-12-29T09:16:51;27.50;;;12.95;;
68106;SDS011;54892;47.488;19.026;2022-12-29T09:20:13;24.33;;;12.02;;
68106;SDS011;54892;47.488;19.026;2022-12-29T09:23:18;25.35;;;12.77;;
68106;SDS011;54892;47.488;19.026;2022-12-29T09:26:21;24.12;;;12.40;;
68106;SDS011;54892;47.488;19.026;2022-12-29T09:29:26;26.05;;;12.65;;
68106;SDS011;54892;47.488;19.026;2022-12-29T09:32:29;23.60;;;12.02;;
68106;SDS011;54892;47.488;19.026;2022-12-29T09:35:34;28.65;;;12.65;;
68106;SDS011;54892;47.488;19.026;2022-12-29T09:38:38;25.37;;;11.48;;
68106;SDS011;54892;47.488;19.026;2022-12-29T09:41:43;23.17;;;11.23;;
68106;SDS011;54892;47.488;19.026;2022-12-29T09:44:56;22.25;;;11.25;;
68106;SDS011;54892;47.488;19.026;2022-12-29T09:48:11;23.55;;;11.77;;
68106;SDS011;54892;47.488;19.026;2022-12-29T09:51:21;28.40;;;11.88;;
68106;SDS011;54892;47.488;19.026;2022-12-29T09:57:58;26.65;;;12.13;;
68106;SDS011;54892;47.488;19.026;2022-12-29T10:01:07;26.08;;;12.20;;
68106;SDS011;54892;47.488;19.026;2022-12-29T10:04:25;26.62;;;12.23;;
68106;SDS011;54892;47.488;19.026;2022-12-29T10:07:32;25.20;;;11.65;;
68106;SDS011;54892;47.488;19.026;2022-12-29T10:10:44;28.55;;;13.10;;
68106;SDS011;54892;47.488;19.026;2022-12-29T10:14:00;24.20;;;11.88;;
68106;SDS011;54892;47.488;19.026;2022-12-29T10:17:24;26.05;;;12.37;;
68106;SDS011;54892;47.488;19.026;2022-12-29T10:20:33;27.80;;;12.88;;
68106;SDS011;54892;47.488;19.026;2022-12-29T10:23:51;25.50;;;12.50;;
68106;SDS011;54892;47.488;19.026;2022-12-29T10:26:56;26.20;;;13.15;;
68106;SDS011;54892;47.488;19.026;2022-12-29T10:30:02;23.30;;;12.15;;
68106;SDS011;54892;47.488;19.026;2022-12-29T10:33:10;27.20;;;13.07;;
68106;SDS011;54892;47.488;19.026;2022-12-29T10:36:20;23.55;;;12.55;;
68106;SDS011;54892;47.488;19.026;2022-12-29T10:39:32;26.42;;;12.75;;
68106;SDS011;54892;47.488;19.026;2022-12-29T10:42:39;27.67;;;12.43;;
68106;SDS011;54892;47.488;19.026;2022-12-29T10:45:46;30.40;;;12.30;;
68106;SDS011;54892;47.488;19.026;2022-12-29T10:48:52;22.17;;;12.50;;
68106;SDS011;54892;47.488;19.026;2022-12-29T10:51:56;23.70;;;12.15;;
68106;SDS011;54892;47.488;19.026;2022-12-29T10:55:03;25.10;;;12.52;;
68106;SDS011;54892;47.488;19.026;2022-12-29T10:58:13;22.85;;;12.07;;
68106;SDS011;54892;47.488;19.026;2022-12-29T11:01:18;27.60;;;12.70;;
68106;SDS011;54892;47.488;19.026;2022-12-29T11:04:28;25.70;;;12.43;;
68106;SDS011;54892;47.488;19.026;2022-12-29T11:07:41;27.90;;;12.95;;
68106;SDS011;54892;47.488;19.026;2022-12-29T11:10:45;23.33;;;12.37;;
68106;SDS011;54892;47.488;19.026;2022-12-29T11:13:55;24.63;;;12.80;;
68106;SDS011;54892;47.488;19.026;2022-12-29T11:17:01;29.65;;;13.65;;
68106;SDS011;54892;47.488;19.026;2022-12-29T11:20:24;25.30;;;12.95;;
68106;SDS011;54892;47.488;19.026;2022-12-29T11:23:36;22.00;;;12.07;;
68106;SDS011;54892;47.488;19.026;2022-12-29T11:26:40;26.65;;;13.52;;
68106;SDS011;54892;47.488;19.026;2022-12-29T11:29:48;27.50;;;13.40;;
68106;SDS011;54892;47.488;19.026;2022-12-29T11:32:52;26.30;;;12.98;;
68106;SDS011;54892;47.488;19.026;2022-12-29T11:35:58;26.25;;;14.55;;
68106;SDS011;54892;47.488;19.026;2022-12-29T11:39:05;26.75;;;13.85;;
68106;SDS011;54892;47.488;19.026;2022-12-29T11:42:30;26.05;;;12.88;;
68106;SDS011;54892;47.488;19.026;2022-12-29T11:45:37;25.88;;;13.70;;
68106;SDS011;54892;47.488;19.026;2022-12-29T11:48:49;31.05;;;13.98;;
68106;SDS011;54892;47.488;19.026;2022-12-29T11:51:54;29.02;;;14.25;;
68106;SDS011;54892;47.488;19.026;2022-12-29T11:54:59;28.55;;;13.85;;
68106;SDS011;54892;47.488;19.026;2022-12-29T11:58:04;25.83;;;13.13;;
68106;SDS011;54892;47.488;19.026;2022-12-29T12:01:10;27.37;;;13.57;;
68106;SDS011;54892;47.488;19.026;2022-12-29T12:04:20;29.37;;;14.18;;
68106;SDS011;54892;47.488;19.026;2022-12-29T12:07:29;28.62;;;14.55;;
68106;SDS011;54892;47.488;19.026;2022-12-29T12:10:43;30.88;;;13.75;;
68106;SDS011;54892;47.488;19.026;2022-12-29T12:13:52;25.52;;;14.50;;
68106;SDS011;54892;47.488;19.026;2022-12-29T12:17:02;26.27;;;13.20;;
68106;SDS011;54892;47.488;19.026;2022-12-29T12:20:12;29.00;;;13.45;;
68106;SDS011;54892;47.488;19.026;2022-12-29T12:23:30;28.35;;;14.45;;
68106;SDS011;54892;47.488;19.026;2022-12-29T12:26:47;25.37;;;13.25;;
68106;SDS011;54892;47.488;19.026;2022-12-29T12:29:58;30.67;;;14.55;;
68106;SDS011;54892;47.488;19.026;2022-12-29T12:33:05;24.30;;;14.25;;
68106;SDS011;54892;47.488;19.026;2022-12-29T12:36:22;26.08;;;13.82;;
68106;SDS011;54892;47.488;19.026;2022-12-29T12:39:40;28.77;;;13.98;;
68106;SDS011;54892;47.488;19.026;2022-12-29T12:42:53;30.45;;;14.77;;
68106;SDS011;54892;47.488;19.026;2022-12-29T12:49:59;28.00;;;13.55;;
68106;SDS011;54892;47.488;19.026;2022-12-29T12:53:22;28.25;;;14.23;;
68106;SDS011;54892;47.488;19.026;2022-12-29T13:00:13;29.73;;;14.02;;
68106;SDS011;54892;47.488;19.026;2022-12-29T13:03:21;29.15;;;14.45;;
68106;SDS011;54892;47.488;19.026;2022-12-29T13:06:36;24.60;;;13.93;;
68106;SDS011;54892;47.488;19.026;2022-12-29T13:09:52;27.65;;;14.07;;
68106;SDS011;54892;47.488;19.026;2022-12-29T13:13:14;29.73;;;13.27;;
68106;SDS011;54892;47.488;19.026;2022-12-29T13:16:34;26.95;;;14.75;;
68106;SDS011;54892;47.488;19.026;2022-12-29T13:19:46;27.25;;;13.62;;
68106;SDS011;54892;47.488;19.026;2022-12-29T13:22:54;26.65;;;14.55;;
68106;SDS011;54892;47.488;19.026;2022-12-29T13:26:02;31.80;;;14.63;;
68106;SDS011;54892;47.488;19.026;2022-12-29T13:29:15;29.10;;;14.95;;
68106;SDS011;54892;47.488;19.026;2022-12-29T13:32:27;29.17;;;14.90;;
68106;SDS011;54892;47.488;19.026;2022-12-29T13:35:44;31.83;;;15.10;;
68106;SDS011;54892;47.488;19.026;2022-12-29T13:38:59;30.42;;;15.55;;
68106;SDS011;54892;47.488;19.026;2022-12-29T13:42:07;26.23;;;14.80;;
68106;SDS011;54892;47.488;19.026;2022-12-29T13:45:15;32.45;;;15.45;;
68106;SDS011;54892;47.488;19.026;2022-12-29T13:48:22;30.42;;;16.02;;
68106;SDS011;54892;47.488;19.026;2022-12-29T13:51:40;29.73;;;15.00;;
68106;SDS011;54892;47.488;19.026;2022-12-29T13:54:52;29.45;;;15.02;;
68106;SDS011;54892;47.488;19.026;2022-12-29T13:58:05;29.30;;;15.57;;
68106;SDS011;54892;47.488;19.026;2022-12-29T14:01:18;27.85;;;14.48;;
68106;SDS011;54892;47.488;19.026;2022-12-29T14:04:28;30.05;;;15.68;;
68106;SDS011;54892;47.488;19.026;2022-12-29T14:07:35;31.23;;;15.10;;
68106;SDS011;54892;47.488;19.026;2022-12-29T14:10:45;31.55;;;15.35;;
68106;SDS011;54892;47.488;19.026;2022-12-29T14:13:50;28.58;;;14.25;;
68106;SDS011;54892;47.488;19.026;2022-12-29T14:16:56;25.95;;;14.27;;
68106;SDS011;54892;47.488;19.026;2022-12-29T14:20:18;28.98;;;14.48;;
68106;SDS011;54892;47.488;19.026;2022-12-29T14:23:29;25.37;;;15.02;;
68106;SDS011;54892;47.488;19.026;2022-12-29T14:26:39;29.25;;;14.55;;
68106;SDS011;54892;47.488;19.026;2022-12-29T14:29:44;27.48;;;14.60;;
68106;SDS011;54892;47.488;19.026;2022-12-29T14:36:19;28.17;;;14.57;;
68106;SDS011;54892;47.488;19.026;2022-12-29T14:39:28;27.13;;;14.77;;
68106;SDS011;54892;47.488;19.026;2022-12-29T14:42:34;29.67;;;15.02;;
68106;SDS011;54892;47.488;19.026;2022-12-29T14:45:38;28.27;;;14.40;;
68106;SDS011;54892;47.488;19.026;2022-12-29T14:48:45;26.70;;;15.13;;
68106;SDS011;54892;47.488;19.026;2022-12-29T14:54:54;29.77;;;14.85;;
68106;SDS011;54892;47.488;19.026;2022-12-29T14:58:02;28.62;;;14.43;;
68106;SDS011;54892;47.488;19.026;2022-12-29T15:01:15;30.10;;;14.10;;
68106;SDS011;54892;47.488;19.026;2022-12-29T15:04:25;32.08;;;15.13;;
68106;SDS011;54892;47.488;19.026;2022-12-29T15:07:30;31.17;;;15.30;;
68106;SDS011;54892;47.488;19.026;2022-12-29T15:10:37;29.10;;;15.35;;
68106;SDS011;54892;47.488;19.026;2022-12-29T15:13:45;33.75;;;15.68;;
68106;SDS011;54892;47.488;19.026;2022-12-29T15:19:56;31.33;;;14.55;;
68106;SDS011;54892;47.488;19.026;2022-12-29T15:23:02;31.40;;;14.27;;
68106;SDS011;54892;47.488;19.026;2022-12-29T15:26:09;30.25;;;15.02;;
68106;SDS011;54892;47.488;19.026;2022-12-29T15:29:28;29.10;;;14.55;;
68106;SDS011;54892;47.488;19.026;2022-12-29T15:32:39;31.87;;;15.50;;
68106;SDS011;54892;47.488;19.026;2022-12-29T15:35:48;27.83;;;15.13;;
68106;SDS011;54892;47.488;19.026;2022-12-29T15:38:53;25.58;;;15.07;;
68106;SDS011;54892;47.488;19.026;2022-12-29T15:41:59;28.42;;;15.30;;
68106;SDS011;54892;47.488;19.026;2022-12-29T15:45:08;26.50;;;14.87;;
68106;SDS011;54892;47.488;19.026;2022-12-29T15:48:16;28.42;;;14.35;;
68106;SDS011;54892;47.488;19.026;2022-12-29T15:51:25;29.60;;;15.73;;
68106;SDS011;54892;47.488;19.026;2022-12-29T15:54:34;30.52;;;15.05;;
68106;SDS011;54892;47.488;19.026;2022-12-29T15:57:42;30.88;;;15.77;;
68106;SDS011;54892;47.488;19.026;2022-12-29T16:00:47;32.20;;;16.67;;
68106;SDS011;54892;47.488;19.026;2022-12-29T16:03:52;29.77;;;14.70;;
68106;SDS011;54892;47.488;19.026;2022-12-29T16:06:58;34.67;;;15.68;;
68106;SDS011;54892;47.488;19.026;2022-12-29T16:10:03;30.35;;;15.65;;
68106;SDS011;54892;47.488;19.026;2022-12-29T16:13:11;28.80;;;15.55;;
68106;SDS011;54892;47.488;19.026;2022-12-29T16:16:22;30.17;;;15.57;;
68106;SDS011;54892;47.488;19.026;2022-12-29T16:19:32;35.67;;;16.17;;
68106;SDS011;54892;47.488;19.026;2022-12-29T16:22:38;33.35;;;16.77;;
68106;SDS011;54892;47.488;19.026;2022-12-29T16:25:45;34.45;;;15.90;;
68106;SDS011;54892;47.488;19.026;2022-12-29T16:28:50;39.40;;;16.83;;
68106;SDS011;54892;47.488;19.026;2022-12-29T16:31:57;35.35;;;16.85;;
68106;SDS011;54892;47.488;19.026;2022-12-29T16:35:12;28.92;;;15.85;;
68106;SDS011;54892;47.488;19.026;2022-12-29T16:38:21;34.17;;;16.70;;
68106;SDS011;54892;47.488;19.026;2022-12-29T16:41:27;32.92;;;16.87;;
68106;SDS011;54892;47.488;19.026;2022-12-29T16:44:32;32.33;;;15.93;;
68106;SDS011;54892;47.488;19.026;2022-12-29T16:47:35;35.80;;;16.92;;
68106;SDS011;54892;47.488;19.026;2022-12-29T16:50:39;34.95;;;17.10;;
68106;SDS011;54892;47.488;19.026;2022-12-29T16:53:49;32.38;;;16.83;;
68106;SDS011;54892;47.488;19.026;2022-12-29T16:56:55;37.15;;;17.17;;
68106;SDS011;54892;47.488;19.026;2022-12-29T17:00:00;36.28;;;16.60;;
68106;SDS011;54892;47.488;19.026;2022-12-29T17:03:08;36.95;;;17.25;;
68106;SDS011;54892;47.488;19.026;2022-12-29T17:06:14;35.20;;;17.05;;
68106;SDS011;54892;47.488;19.026;2022-12-29T17:09:21;32.97;;;16.67;;
68106;SDS011;54892;47.488;19.026;2022-12-29T17:12:26;37.95;;;16.80;;
68106;SDS011;54892;47.488;19.026;2022-12-29T17:15:32;37.08;;;17.00;;
68106;SDS011;54892;47.488;19.026;2022-12-29T17:18:36;32.03;;;16.73;;
68106;SDS011;54892;47.488;19.026;2022-12-29T17:21:40;33.15;;;16.98;;
68106;SDS011;54892;47.488;19.026;2022-12-29T17:24:45;33.03;;;17.75;;
68106;SDS011;54892;47.488;19.026;2022-12-29T17:27:49;38.25;;;17.30;;
68106;SDS011;54892;47.488;19.026;2022-12-29T17:30:57;36.55;;;17.95;;
68106;SDS011;54892;47.488;19.026;2022-12-29T17:34:04;35.80;;;17.65;;
68106;SDS011;54892;47.488;19.026;2022-12-29T17:37:11;35.55;;;17.58;;
68106;SDS011;54892;47.488;19.026;2022-12-29T17:40:37;31.60;;;17.70;;
68106;SDS011;54892;47.488;19.026;2022-12-29T17:43:41;36.20;;;18.17;;
68106;SDS011;54892;47.488;19.026;2022-12-29T17:46:45;31.75;;;16.67;;
68106;SDS011;54892;47.488;19.026;2022-12-29T17:49:50;34.47;;;16.25;;
68106;SDS011;54892;47.488;19.026;2022-12-29T17:52:54;34.75;;;17.87;;
68106;SDS011;54892;47.488;19.026;2022-12-29T17:56:02;33.58;;;16.65;;
68106;SDS011;54892;47.488;19.026;2022-12-29T17:59:08;34.05;;;16.73;;
68106;SDS011;54892;47.488;19.026;2022-12-29T18:02:22;32.88;;;17.62;;
68106;SDS011;54892;47.488;19.026;2022-12-29T18:05:28;33.10;;;16.20;;
68106;SDS011;54892;47.488;19.026;2022-12-29T18:08:33;35.60;;;16.85;;
68106;SDS011;54892;47.488;19.026;2022-12-29T18:11:39;37.10;;;16.52;;
68106;SDS011;54892;47.488;19.026;2022-12-29T18:14:44;32.35;;;16.33;;
68106;SDS011;54892;47.488;19.026;2022-12-29T18:17:48;33.47;;;16.75;;
68106;SDS011;54892;47.488;19.026;2022-12-29T18:20:57;30.70;;;15.85;;
68106;SDS011;54892;47.488;19.026;2022-12-29T18:24:02;33.17;;;15.93;;
68106;SDS011;54892;47.488;19.026;2022-12-29T18:27:10;32.00;;;15.75;;
68106;SDS011;54892;47.488;19.026;2022-12-29T18:30:15;32.65;;;16.27;;
68106;SDS011;54892;47.488;19.026;2022-12-29T18:33:19;31.17;;;16.17;;